Time;durP1;ratioP1;P1;durP2;ratioP2;P2;SDS_P1;SDS_P2;PMS_P1;PMS_P2;Temp;Humidity;BMP_temperature;BMP_pressure;BME280_temperature;BME280_humidity;BME280_pressure;Samples;Min_cycle;Max_cycle;Signal;HPM_P1;HPM_P2
2023/10/09 00:03:00;;;;;;;25.98;11.77;;;;;;;;;;4929447;29;20043;-59
2023/10/09 00:05:47;;;;;;;27.17;11.73;;;;;;;;;;4932637;29;20035;-61
2023/10/09 00:08:22;;;;;;;22.92;11.68;;;;;;;;;;4930636;29;20042;-59
2023/10/09 00:10:54;;;;;;;25.27;10.93;;;;;;;;;;4936301;29;20051;-60
2023/10/09 00:13:28;;;;;;;28.33;12.55;;;;;;;;;;4935222;29;20050;-59
2023/10/09 00:15:59;;;;;;;29.05;12.80;;;;;;;;;;4934524;29;20043;-60
2023/10/09 00:18:29;;;;;;;27.95;12.43;;;;;;;;;;4934622;29;20036;-59
2023/10/09 00:21:11;;;;;;;32.37;12.80;;;;;;;;;;4918114;29;20024;-58
2023/10/09 00:23:38;;;;;;;28.58;13.00;;;;;;;;;;4937579;29;20103;-59
2023/10/09 00:26:16;;;;;;;28.70;12.98;;;;;;;;;;4916000;29;20495;-58
2023/10/09 00:28:46;;;;;;;29.00;12.40;;;;;;;;;;4935752;29;20036;-59
2023/10/09 00:31:15;;;;;;;29.38;13.10;;;;;;;;;;4915679;29;20091;-59
2023/10/09 00:33:42;;;;;;;30.42;13.38;;;;;;;;;;4931919;29;20127;-60
2023/10/09 00:36:11;;;;;;;32.05;13.32;;;;;;;;;;4930428;29;20755;-58
2023/10/09 00:38:45;;;;;;;30.15;13.00;;;;;;;;;;4934728;29;20047;-60
2023/10/09 00:41:10;;;;;;;29.40;13.52;;;;;;;;;;4936296;29;20437;-60
2023/10/09 00:43:37;;;;;;;27.98;13.38;;;;;;;;;;4932984;29;20132;-58
2023/10/09 00:48:53;;;;;;;27.25;12.60;;;;;;;;;;4932189;29;20042;-59
2023/10/09 00:51:21;;;;;;;26.40;12.80;;;;;;;;;;4937234;29;20047;-59
2023/10/09 00:53:58;;;;;;;29.38;13.68;;;;;;;;;;4934047;29;20035;-60
2023/10/09 00:58:56;;;;;;;28.92;13.18;;;;;;;;;;4932597;29;20047;-60
2023/10/09 01:01:34;;;;;;;29.48;13.10;;;;;;;;;;4931427;29;20036;-59
2023/10/09 01:04:17;;;;;;;32.55;13.13;;;;;;;;;;4917404;29;20044;-57
2023/10/09 01:06:44;;;;;;;28.60;13.18;;;;;;;;;;4932619;29;20074;-56
2023/10/09 01:09:20;;;;;;;28.20;13.20;;;;;;;;;;4933607;29;20094;-58
2023/10/09 01:11:49;;;;;;;28.10;13.73;;;;;;;;;;4931065;29;20053;-59
2023/10/09 01:14:15;;;;;;;31.00;13.65;;;;;;;;;;4933634;29;20042;-58
2023/10/09 01:16:42;;;;;;;29.15;13.80;;;;;;;;;;4932147;29;20043;-59
2023/10/09 01:19:13;;;;;;;37.35;14.75;;;;;;;;;;4932501;29;20066;-57
2023/10/09 01:21:39;;;;;;;33.55;14.02;;;;;;;;;;4932949;29;20115;-59
2023/10/09 01:24:08;;;;;;;34.53;14.80;;;;;;;;;;4932591;29;20532;-64
2023/10/09 01:26:47;;;;;;;32.80;15.63;;;;;;;;;;4933277;29;20043;-58
2023/10/09 01:29:20;;;;;;;29.65;14.25;;;;;;;;;;4932518;29;20554;-58
2023/10/09 01:31:52;;;;;;;34.92;14.88;;;;;;;;;;4926590;29;20477;-58
2023/10/09 01:34:38;;;;;;;34.40;15.45;;;;;;;;;;4933744;29;20041;-58
2023/10/09 01:37:25;;;;;;;35.08;14.98;;;;;;;;;;4931382;29;20476;-58
2023/10/09 01:39:52;;;;;;;27.60;13.88;;;;;;;;;;4933560;29;20131;-60
2023/10/09 01:42:35;;;;;;;28.73;14.63;;;;;;;;;;4933659;29;20035;-58
2023/10/09 01:45:15;;;;;;;32.50;14.95;;;;;;;;;;4915048;29;21028;-60
2023/10/09 01:47:46;;;;;;;27.83;14.52;;;;;;;;;;4936889;29;20047;-58
2023/10/09 01:50:19;;;;;;;36.08;15.20;;;;;;;;;;4933095;29;20136;-61
2023/10/09 01:52:45;;;;;;;30.20;14.30;;;;;;;;;;4929898;29;20070;-59
2023/10/09 01:55:27;;;;;;;31.05;14.85;;;;;;;;;;4931954;29;20058;-58
2023/10/09 01:57:52;;;;;;;29.20;14.68;;;;;;;;;;4933196;29;20043;-60
2023/10/09 02:00:23;;;;;;;32.20;14.70;;;;;;;;;;4932833;29;20057;-59
2023/10/09 02:02:50;;;;;;;33.40;15.10;;;;;;;;;;4932110;29;20039;-60
2023/10/09 02:07:52;;;;;;;34.63;15.13;;;;;;;;;;4933311;29;20039;-59
2023/10/09 02:13:10;;;;;;;33.10;14.93;;;;;;;;;;4926542;29;20050;-60
2023/10/09 02:23:46;;;;;;;30.17;15.05;;;;;;;;;;4931586;29;20048;-58
2023/10/09 02:28:48;;;;;;;29.80;14.68;;;;;;;;;;4924615;29;20051;-60
2023/10/09 02:31:14;;;;;;;32.28;14.75;;;;;;;;;;4913956;29;20538;-59
2023/10/09 02:33:40;;;;;;;34.47;15.27;;;;;;;;;;4910821;29;20115;-59
2023/10/09 02:36:06;;;;;;;28.80;14.88;;;;;;;;;;4921052;29;20537;-59
2023/10/09 02:38:41;;;;;;;30.17;15.07;;;;;;;;;;4911502;29;20044;-58
2023/10/09 02:43:47;;;;;;;24.75;13.27;;;;;;;;;;4924369;29;20468;-59
2023/10/09 02:46:20;;;;;;;28.25;14.25;;;;;;;;;;4930592;29;20107;-59
2023/10/09 02:48:52;;;;;;;28.90;13.82;;;;;;;;;;4924003;29;20043;-58
2023/10/09 02:51:32;;;;;;;31.88;14.10;;;;;;;;;;4923397;29;20114;-57
2023/10/09 02:54:04;;;;;;;29.83;14.23;;;;;;;;;;4928329;29;20048;-60
2023/10/09 02:56:40;;;;;;;24.45;14.20;;;;;;;;;;4901872;29;20035;-59
2023/10/09 02:59:06;;;;;;;27.67;13.68;;;;;;;;;;4930267;29;20036;-59
2023/10/09 03:01:34;;;;;;;26.30;13.60;;;;;;;;;;4910975;29;20054;-59
2023/10/09 03:04:02;;;;;;;26.42;13.73;;;;;;;;;;4918337;29;20112;-59
2023/10/09 03:06:30;;;;;;;27.02;14.40;;;;;;;;;;4897367;29;20036;-59
2023/10/09 03:08:57;;;;;;;28.98;13.23;;;;;;;;;;4926029;29;20477;-60
2023/10/09 03:11:23;;;;;;;26.38;12.60;;;;;;;;;;4909077;29;20044;-58
2023/10/09 03:13:49;;;;;;;27.60;13.20;;;;;;;;;;4932708;29;20528;-60
2023/10/09 03:16:21;;;;;;;28.75;12.73;;;;;;;;;;4930285;29;20036;-59
2023/10/09 03:18:56;;;;;;;23.70;12.57;;;;;;;;;;4932354;29;20043;-58
2023/10/09 03:21:22;;;;;;;26.77;13.05;;;;;;;;;;4915592;29;20059;-61
2023/10/09 03:23:49;;;;;;;25.80;13.52;;;;;;;;;;4930070;29;20504;-58
2023/10/09 03:26:19;;;;;;;25.08;13.07;;;;;;;;;;4938517;29;20465;-58
2023/10/09 03:28:48;;;;;;;24.90;13.35;;;;;;;;;;4934657;29;20353;-59
2023/10/09 03:31:14;;;;;;;28.60;13.43;;;;;;;;;;4924772;29;20119;-59
2023/10/09 03:33:40;;;;;;;26.23;13.07;;;;;;;;;;4934885;29;20127;-60
2023/10/09 03:36:07;;;;;;;28.85;13.90;;;;;;;;;;4935030;29;20122;-59
2023/10/09 03:38:34;;;;;;;25.42;13.40;;;;;;;;;;4935693;29;20032;-59
2023/10/09 03:41:07;;;;;;;25.15;13.18;;;;;;;;;;4928358;29;20464;-59
2023/10/09 03:43:41;;;;;;;23.27;12.30;;;;;;;;;;4933481;29;20032;-59
2023/10/09 03:46:26;;;;;;;25.80;13.70;;;;;;;;;;4927968;29;20063;-60
2023/10/09 03:48:52;;;;;;;24.77;13.35;;;;;;;;;;4940570;29;20606;-61
2023/10/09 03:51:21;;;;;;;21.38;12.43;;;;;;;;;;4934449;29;20032;-57
2023/10/09 03:53:52;;;;;;;26.90;13.05;;;;;;;;;;4935554;29;20036;-57
2023/10/09 03:56:21;;;;;;;24.42;12.65;;;;;;;;;;4934130;29;20083;-56
2023/10/09 03:59:00;;;;;;;26.17;13.02;;;;;;;;;;4935621;29;20123;-58
2023/10/09 04:01:40;;;;;;;23.92;12.20;;;;;;;;;;4933979;29;20027;-58
2023/10/09 04:04:07;;;;;;;24.50;12.80;;;;;;;;;;4931927;29;20524;-57
2023/10/09 04:06:33;;;;;;;22.27;12.85;;;;;;;;;;4936392;29;20043;-60
2023/10/09 04:09:27;;;;;;;21.23;12.10;;;;;;;;;;4934904;29;20403;-58
2023/10/09 04:14:47;;;;;;;24.30;13.15;;;;;;;;;;4935500;29;20054;-60
2023/10/09 04:22:51;;;;;;;25.02;13.15;;;;;;;;;;4874319;29;20506;-59
2023/10/09 04:25:38;;;;;;;25.52;12.95;;;;;;;;;;4922432;29;20039;-59
2023/10/09 04:28:09;;;;;;;21.40;12.50;;;;;;;;;;4933135;29;20062;-59
2023/10/09 04:30:46;;;;;;;22.17;12.27;;;;;;;;;;4941443;29;20175;-59
2023/10/09 04:36:46;;;;;;;24.08;11.88;;;;;;;;;;4926008;29;20127;-58
2023/10/09 04:39:06;;;;;;;25.48;11.95;;;;;;;;;;4937268;29;20108;-58
2023/10/09 04:41:52;;;;;;;22.02;12.07;;;;;;;;;;4935312;29;20039;-59
2023/10/09 04:44:29;;;;;;;20.02;11.27;;;;;;;;;;4939640;29;20543;-59
2023/10/09 04:52:51;;;;;;;19.35;11.07;;;;;;;;;;4938779;29;20082;-59
2023/10/09 04:57:38;;;;;;;20.85;11.00;;;;;;;;;;4935436;29;20453;-59
2023/10/09 05:00:22;;;;;;;19.98;10.80;;;;;;;;;;4934336;29;20063;-59
2023/10/09 05:02:54;;;;;;;19.52;9.98;;;;;;;;;;4935612;29;20035;-60
2023/10/09 05:08:19;;;;;;;18.60;10.23;;;;;;;;;;4947527;29;20441;-57
2023/10/09 05:16:28;;;;;;;19.42;10.25;;;;;;;;;;4915361;29;20529;-58
2023/10/09 05:18:59;;;;;;;33.70;9.70;;;;;;;;;;4915350;29;20036;-60
2023/10/09 05:21:44;;;;;;;19.80;10.10;;;;;;;;;;4927617;29;20111;-58
2023/10/09 05:35:06;;;;;;;19.55;10.38;;;;;;;;;;4934136;29;20126;-61
2023/10/09 05:37:32;;;;;;;21.83;10.05;;;;;;;;;;4936408;29;20535;-61
2023/10/09 05:42:42;;;;;;;19.58;9.90;;;;;;;;;;4934264;29;20498;-60
2023/10/09 05:47:53;;;;;;;22.30;9.88;;;;;;;;;;4934576;29;20154;-61
2023/10/09 06:03:48;;;;;;;16.88;9.98;;;;;;;;;;4933862;29;20053;-61
2023/10/09 06:06:33;;;;;;;21.73;9.50;;;;;;;;;;4913116;29;20043;-61
2023/10/09 06:11:39;;;;;;;19.38;9.80;;;;;;;;;;4934162;29;20079;-61
2023/10/09 06:27:56;;;;;;;20.35;9.82;;;;;;;;;;4933302;29;20050;-61
2023/10/09 06:33:18;;;;;;;21.25;9.98;;;;;;;;;;4911011;29;20047;-60
2023/10/09 06:35:53;;;;;;;16.25;9.50;;;;;;;;;;4929487;29;20040;-58
2023/10/09 06:38:23;;;;;;;22.88;10.40;;;;;;;;;;4933351;29;20038;-60
2023/10/09 06:41:34;;;;;;;19.40;10.75;;;;;;;;;;4933504;29;20481;-61
2023/10/09 06:43:53;;;;;;;19.13;10.68;;;;;;;;;;4933853;29;20465;-61
2023/10/09 06:48:56;;;;;;;22.23;10.80;;;;;;;;;;4933955;29;20039;-60
2023/10/09 06:59:04;;;;;;;18.70;11.20;;;;;;;;;;4932409;29;20043;-61
2023/10/09 07:04:19;;;;;;;18.40;11.40;;;;;;;;;;4936635;29;20486;-60
2023/10/09 07:06:51;;;;;;;18.55;10.70;;;;;;;;;;4934905;29;20076;-61
2023/10/09 07:09:19;;;;;;;17.55;10.40;;;;;;;;;;4935969;29;20027;-61
2023/10/09 07:27:51;;;;;;;24.40;11.00;;;;;;;;;;4875408;29;20135;-61
2023/10/09 07:35:57;;;;;;;23.70;11.38;;;;;;;;;;4935865;29;20039;-60
2023/10/09 07:38:37;;;;;;;20.52;10.95;;;;;;;;;;4936290;29;20079;-60
2023/10/09 07:43:39;;;;;;;20.17;10.90;;;;;;;;;;4933193;29;20048;-61
2023/10/09 07:48:52;;;;;;;17.75;10.52;;;;;;;;;;4935268;29;20055;-62
2023/10/09 07:51:19;;;;;;;20.08;10.50;;;;;;;;;;4937299;29;20043;-60
2023/10/09 07:53:45;;;;;;;19.38;10.85;;;;;;;;;;4931301;29;20048;-62
2023/10/09 07:56:13;;;;;;;23.17;11.00;;;;;;;;;;4930060;29;20628;-60
2023/10/09 07:58:48;;;;;;;20.60;10.88;;;;;;;;;;4944753;29;20028;-61
2023/10/09 08:01:34;;;;;;;20.63;10.80;;;;;;;;;;4935762;29;20581;-61
2023/10/09 08:04:20;;;;;;;20.10;11.15;;;;;;;;;;4949933;29;20043;-61
2023/10/09 08:06:47;;;;;;;19.00;10.90;;;;;;;;;;4938202;29;20038;-61
2023/10/09 08:17:15;;;;;;;19.33;10.38;;;;;;;;;;4897508;29;20089;-61
2023/10/09 08:19:53;;;;;;;23.42;11.30;;;;;;;;;;4898090;29;20041;-61
2023/10/09 08:24:56;;;;;;;19.65;10.68;;;;;;;;;;4915707;29;20036;-61
2023/10/09 08:33:00;;;;;;;18.10;10.88;;;;;;;;;;4908319;29;20043;-61
2023/10/09 08:35:35;;;;;;;18.10;10.27;;;;;;;;;;4901214;29;20028;-60
2023/10/09 08:38:08;;;;;;;22.08;11.60;;;;;;;;;;4915892;29;20063;-61
2023/10/09 08:40:38;;;;;;;18.60;11.18;;;;;;;;;;4910199;29;20035;-61
2023/10/09 08:43:08;;;;;;;19.10;11.13;;;;;;;;;;4896900;29;20060;-61
2023/10/09 08:45:39;;;;;;;19.50;11.53;;;;;;;;;;4893579;29;20119;-61
2023/10/09 08:48:15;;;;;;;17.63;11.00;;;;;;;;;;4898754;29;20028;-61
2023/10/09 08:50:42;;;;;;;21.50;11.90;;;;;;;;;;4916055;29;20040;-61
2023/10/09 08:53:10;;;;;;;21.23;11.45;;;;;;;;;;4914942;29;20046;-61
2023/10/09 08:55:36;;;;;;;22.70;12.30;;;;;;;;;;4915104;29;20032;-62
2023/10/09 08:58:05;;;;;;;18.58;11.20;;;;;;;;;;4914535;29;20068;-61
2023/10/09 09:00:33;;;;;;;23.92;12.02;;;;;;;;;;4911784;29;20029;-60
2023/10/09 09:03:01;;;;;;;20.15;12.02;;;;;;;;;;4896317;29;20101;-61
2023/10/09 09:05:29;;;;;;;27.33;12.77;;;;;;;;;;4898066;29;20032;-61
2023/10/09 09:07:56;;;;;;;20.65;11.50;;;;;;;;;;4915488;29;20394;-59
2023/10/09 09:10:36;;;;;;;18.33;11.95;;;;;;;;;;4897709;29;20048;-59
2023/10/09 09:13:05;;;;;;;19.65;11.35;;;;;;;;;;4933813;29;20472;-60
2023/10/09 09:15:31;;;;;;;24.60;11.55;;;;;;;;;;4902357;29;20032;-60
2023/10/09 09:18:11;;;;;;;21.58;12.27;;;;;;;;;;4915255;29;20036;-59
2023/10/09 09:20:40;;;;;;;21.63;11.50;;;;;;;;;;4898654;29;20036;-61
2023/10/09 09:23:12;;;;;;;23.50;11.43;;;;;;;;;;4913281;29;20043;-62
2023/10/09 09:25:45;;;;;;;16.23;9.70;;;;;;;;;;4911334;29;20035;-62
2023/10/09 09:28:26;;;;;;;19.00;10.38;;;;;;;;;;4904981;29;20392;-62
2023/10/09 09:30:53;;;;;;;19.35;10.32;;;;;;;;;;4917984;29;20039;-62
2023/10/09 09:33:26;;;;;;;18.95;10.50;;;;;;;;;;4915282;29;20044;-61
2023/10/09 09:36:13;;;;;;;20.95;10.80;;;;;;;;;;4913838;29;20095;-63
2023/10/09 09:38:47;;;;;;;18.27;10.10;;;;;;;;;;4915525;29;20032;-61
2023/10/09 09:41:23;;;;;;;15.20;9.65;;;;;;;;;;4910369;29;20047;-61
2023/10/09 09:44:00;;;;;;;17.33;9.77;;;;;;;;;;4914351;29;20104;-62
2023/10/09 09:46:36;;;;;;;17.70;10.65;;;;;;;;;;4915147;29;20500;-61
2023/10/09 09:49:16;;;;;;;19.10;10.48;;;;;;;;;;4914588;29;20115;-61
2023/10/09 09:51:46;;;;;;;19.17;10.98;;;;;;;;;;4898170;29;20040;-61
2023/10/09 09:54:15;;;;;;;17.35;9.70;;;;;;;;;;4923542;29;20465;-62
2023/10/09 09:56:44;;;;;;;19.90;9.95;;;;;;;;;;4922991;29;20127;-62
2023/10/09 09:59:21;;;;;;;20.33;10.82;;;;;;;;;;4928166;29;20038;-60
2023/10/09 10:01:56;;;;;;;21.63;10.32;;;;;;;;;;4905884;29;20043;-59
2023/10/09 10:04:26;;;;;;;16.92;10.27;;;;;;;;;;4898557;29;20028;-60
2023/10/09 10:06:53;;;;;;;18.50;10.70;;;;;;;;;;4896679;29;20039;-59
2023/10/09 10:09:38;;;;;;;21.48;10.57;;;;;;;;;;4914256;29;20032;-58
2023/10/09 10:12:09;;;;;;;18.80;10.13;;;;;;;;;;4917521;29;20050;-61
2023/10/09 10:14:59;;;;;;;20.45;10.90;;;;;;;;;;4914053;29;20531;-61
2023/10/09 10:17:27;;;;;;;16.73;10.07;;;;;;;;;;4914853;29;20032;-60
2023/10/09 10:22:47;;;;;;;17.67;10.55;;;;;;;;;;4916196;29;20039;-61
2023/10/09 10:25:32;;;;;;;17.00;10.25;;;;;;;;;;4914165;29;20397;-59
2023/10/09 10:28:17;;;;;;;18.02;10.25;;;;;;;;;;4927980;29;20044;-59
2023/10/09 10:30:46;;;;;;;20.55;10.48;;;;;;;;;;4930794;29;20055;-61
2023/10/09 10:33:17;;;;;;;20.58;10.55;;;;;;;;;;4913183;29;20040;-61
2023/10/09 10:38:45;;;;;;;17.52;9.63;;;;;;;;;;4917768;29;20032;-61
2023/10/09 10:41:19;;;;;;;16.33;8.73;;;;;;;;;;4913479;29;20036;-60
2023/10/09 10:43:54;;;;;;;23.95;9.75;;;;;;;;;;4890699;29;20039;-60
2023/10/09 10:49:00;;;;;;;14.90;8.48;;;;;;;;;;4918474;29;20500;-61
2023/10/09 10:51:37;;;;;;;20.67;10.25;;;;;;;;;;4915611;29;20035;-61
2023/10/09 10:54:28;;;;;;;17.58;9.43;;;;;;;;;;4927580;29;20043;-62
2023/10/09 10:56:48;;;;;;;17.98;9.60;;;;;;;;;;4917374;29;20028;-61
2023/10/09 10:59:22;;;;;;;17.23;9.70;;;;;;;;;;4935464;29;20040;-63
2023/10/09 11:07:06;;;;;;;16.70;8.68;;;;;;;;;;4915263;29;20485;-67
2023/10/09 11:10:07;;;;;;;16.42;8.90;;;;;;;;;;4920190;29;20067;-63
2023/10/09 11:12:41;;;;;;;17.15;8.65;;;;;;;;;;4923589;29;20044;-61
2023/10/09 11:15:29;;;;;;;16.38;9.18;;;;;;;;;;4902224;29;20047;-67
2023/10/09 11:18:07;;;;;;;16.23;8.93;;;;;;;;;;4914917;29;20040;-60
2023/10/09 11:20:39;;;;;;;17.00;9.07;;;;;;;;;;4918263;29;20035;-62
2023/10/09 11:25:52;;;;;;;15.68;9.15;;;;;;;;;;4918074;29;20048;-61
2023/10/09 11:28:29;;;;;;;19.80;9.65;;;;;;;;;;4917459;29;20635;-60
2023/10/09 11:31:05;;;;;;;16.33;9.70;;;;;;;;;;4917635;29;20040;-60
2023/10/09 11:33:45;;;;;;;16.42;9.43;;;;;;;;;;4901267;29;20071;-61
2023/10/09 11:36:11;;;;;;;19.02;9.10;;;;;;;;;;4919373;29;20028;-59
2023/10/09 11:38:38;;;;;;;17.23;9.70;;;;;;;;;;4912935;29;20127;-59
2023/10/09 11:41:22;;;;;;;16.63;9.15;;;;;;;;;;4916486;29;20095;-59
2023/10/09 11:43:52;;;;;;;17.08;9.68;;;;;;;;;;4932857;29;20374;-60
2023/10/09 11:52:35;;;;;;;18.60;10.20;;;;;;;;;;4917420;29;20397;-59
2023/10/09 11:54:35;;;;;;;19.45;10.10;;;;;;;;;;4908895;29;20040;-59
2023/10/09 11:57:04;;;;;;;19.75;9.23;;;;;;;;;;4916352;29;20047;-60
2023/10/09 11:59:37;;;;;;;17.60;9.25;;;;;;;;;;4917511;29;20462;-60
2023/10/09 12:02:05;;;;;;;18.25;9.55;;;;;;;;;;4915883;29;20143;-60
2023/10/09 12:04:30;;;;;;;14.32;9.02;;;;;;;;;;4916735;29;20489;-60
2023/10/09 12:07:07;;;;;;;16.20;9.27;;;;;;;;;;4916956;29;20055;-60
2023/10/09 12:09:42;;;;;;;18.23;9.20;;;;;;;;;;4929508;29;20035;-60
2023/10/09 12:12:11;;;;;;;15.00;9.45;;;;;;;;;;4927495;29;20127;-60
2023/10/09 12:14:39;;;;;;;17.73;9.85;;;;;;;;;;4908025;29;20036;-58
2023/10/09 12:17:07;;;;;;;19.42;9.50;;;;;;;;;;4899096;29;20046;-59
2023/10/09 12:19:37;;;;;;;18.25;9.43;;;;;;;;;;4917133;29;20036;-59
2023/10/09 12:22:05;;;;;;;17.33;9.50;;;;;;;;;;4916472;29;20529;-60
2023/10/09 12:24:31;;;;;;;20.70;10.35;;;;;;;;;;4910933;29;20040;-60
2023/10/09 12:26:57;;;;;;;19.48;9.52;;;;;;;;;;4914119;29;20504;-62
2023/10/09 12:29:23;;;;;;;17.70;9.88;;;;;;;;;;4916321;29;20401;-61
2023/10/09 12:31:57;;;;;;;18.05;9.68;;;;;;;;;;4916796;29;20494;-60
2023/10/09 12:34:30;;;;;;;16.67;9.63;;;;;;;;;;4924085;29;20035;-60
2023/10/09 12:37:04;;;;;;;19.25;9.88;;;;;;;;;;4931004;29;20036;-61
2023/10/09 12:39:40;;;;;;;18.70;9.82;;;;;;;;;;4917265;29;20355;-61
2023/10/09 12:42:08;;;;;;;18.10;9.65;;;;;;;;;;4925382;29;20032;-62
2023/10/09 12:44:38;;;;;;;18.23;10.15;;;;;;;;;;4916444;29;20129;-61
2023/10/09 12:47:05;;;;;;;17.40;9.95;;;;;;;;;;4915360;29;20044;-61
2023/10/09 12:49:31;;;;;;;18.70;9.95;;;;;;;;;;4915016;29;20047;-61
2023/10/09 12:51:57;;;;;;;19.55;9.95;;;;;;;;;;4916320;29;20040;-61
2023/10/09 12:54:27;;;;;;;20.02;10.30;;;;;;;;;;4913555;29;20040;-64
2023/10/09 12:56:53;;;;;;;18.65;10.80;;;;;;;;;;4908053;29;20039;-67
2023/10/09 12:59:20;;;;;;;20.88;10.18;;;;;;;;;;4913833;29;20024;-62
2023/10/09 13:01:52;;;;;;;21.00;11.05;;;;;;;;;;4916013;29;20024;-62
2023/10/09 13:04:22;;;;;;;18.23;10.63;;;;;;;;;;4915574;29;20095;-62
2023/10/09 13:06:47;;;;;;;18.70;10.52;;;;;;;;;;4916288;29;20036;-62
2023/10/09 13:09:15;;;;;;;17.52;10.90;;;;;;;;;;4915416;29;20041;-60
2023/10/09 13:11:45;;;;;;;19.55;10.93;;;;;;;;;;4929515;29;20051;-61
2023/10/09 13:14:16;;;;;;;22.10;10.65;;;;;;;;;;4900978;29;20116;-60
2023/10/09 13:16:45;;;;;;;18.67;10.52;;;;;;;;;;4915660;29;20467;-61
2023/10/09 13:19:11;;;;;;;22.25;10.95;;;;;;;;;;4898227;29;20389;-61
2023/10/09 13:21:39;;;;;;;19.65;10.63;;;;;;;;;;4915619;29;20042;-61
2023/10/09 13:24:23;;;;;;;19.33;10.93;;;;;;;;;;4914466;29;20032;-61
2023/10/09 13:26:51;;;;;;;26.77;11.15;;;;;;;;;;4915810;29;20093;-61
2023/10/09 13:29:22;;;;;;;16.80;10.43;;;;;;;;;;4914628;29;20100;-61
2023/10/09 13:31:51;;;;;;;20.88;12.00;;;;;;;;;;4916158;29;20036;-61
2023/10/09 13:34:16;;;;;;;19.73;10.90;;;;;;;;;;4904715;29;20059;-60
2023/10/09 13:36:55;;;;;;;18.45;10.75;;;;;;;;;;4915712;29;20443;-61
2023/10/09 13:41:47;;;;;;;16.55;10.73;;;;;;;;;;4915524;29;20122;-60
2023/10/09 13:44:13;;;;;;;19.75;11.38;;;;;;;;;;4914873;29;20028;-61
2023/10/09 13:46:41;;;;;;;22.52;11.05;;;;;;;;;;4915632;29;20100;-61
2023/10/09 13:49:13;;;;;;;21.17;10.93;;;;;;;;;;4882225;29;20048;-61
2023/10/09 13:51:44;;;;;;;18.08;11.15;;;;;;;;;;4914889;29;20059;-60
2023/10/09 13:54:28;;;;;;;19.95;11.73;;;;;;;;;;4932181;29;20473;-61
2023/10/09 13:56:54;;;;;;;21.42;11.45;;;;;;;;;;4896473;29;20382;-60
2023/10/09 13:59:22;;;;;;;21.42;11.50;;;;;;;;;;4923313;29;20043;-61
2023/10/09 14:01:48;;;;;;;22.25;11.00;;;;;;;;;;4915087;29;20388;-61
2023/10/09 14:04:18;;;;;;;19.00;11.10;;;;;;;;;;4928294;29;20094;-60
2023/10/09 14:06:44;;;;;;;20.38;11.35;;;;;;;;;;4916913;29;20519;-60
2023/10/09 14:09:11;;;;;;;20.90;11.30;;;;;;;;;;4914640;29;20031;-61
2023/10/09 14:11:44;;;;;;;19.98;11.10;;;;;;;;;;4914459;29;20086;-61
2023/10/09 14:14:09;;;;;;;18.45;11.20;;;;;;;;;;4921945;29;20453;-61
2023/10/09 14:16:35;;;;;;;20.65;10.90;;;;;;;;;;4915273;29;20035;-61
2023/10/09 14:19:06;;;;;;;20.63;10.65;;;;;;;;;;4912960;29;20079;-62
2023/10/09 14:21:37;;;;;;;19.77;11.40;;;;;;;;;;4915059;29;20462;-60
2023/10/09 14:24:15;;;;;;;17.08;10.90;;;;;;;;;;4913567;29;20379;-62
2023/10/09 14:26:41;;;;;;;20.35;11.32;;;;;;;;;;4896476;29;20076;-61
2023/10/09 14:29:07;;;;;;;18.02;11.32;;;;;;;;;;4903225;29;20088;-61
2023/10/09 14:31:38;;;;;;;18.85;10.38;;;;;;;;;;4914929;29;20446;-60
2023/10/09 14:34:04;;;;;;;21.38;11.15;;;;;;;;;;4922943;29;20051;-60
2023/10/09 14:36:33;;;;;;;20.13;11.30;;;;;;;;;;4897897;29;20032;-60
2023/10/09 14:39:00;;;;;;;20.90;10.60;;;;;;;;;;4915465;29;20043;-60
2023/10/09 14:41:27;;;;;;;22.67;11.25;;;;;;;;;;4910912;29;20040;-59
2023/10/09 14:43:53;;;;;;;18.48;10.75;;;;;;;;;;4904799;29;20039;-60
2023/10/09 14:46:26;;;;;;;19.25;10.82;;;;;;;;;;4924661;29;20252;-60
2023/10/09 14:48:55;;;;;;;19.23;11.52;;;;;;;;;;4927374;29;20044;-60
2023/10/09 14:51:26;;;;;;;22.88;11.15;;;;;;;;;;4932698;29;20034;-60
2023/10/09 14:54:01;;;;;;;20.02;10.45;;;;;;;;;;4931414;29;20036;-60
2023/10/09 14:56:30;;;;;;;19.27;11.25;;;;;;;;;;4907972;29;20032;-61
2023/10/09 14:58:58;;;;;;;18.13;11.02;;;;;;;;;;4917349;29;20040;-60
2023/10/09 15:01:25;;;;;;;21.45;11.82;;;;;;;;;;4901867;29;20393;-59
2023/10/09 15:03:55;;;;;;;21.58;11.73;;;;;;;;;;4913382;29;20473;-60
2023/10/09 15:06:21;;;;;;;18.98;11.68;;;;;;;;;;4914192;29;20102;-60
2023/10/09 15:08:47;;;;;;;20.40;11.60;;;;;;;;;;4923723;29;20088;-61
2023/10/09 15:11:12;;;;;;;19.75;11.63;;;;;;;;;;4923057;29;20075;-61
2023/10/09 15:13:39;;;;;;;24.63;11.80;;;;;;;;;;4922802;29;20537;-59
2023/10/09 15:16:05;;;;;;;20.88;12.18;;;;;;;;;;4905731;29;20145;-58
2023/10/09 15:18:33;;;;;;;21.25;11.65;;;;;;;;;;4895486;29;20056;-58
2023/10/09 15:20:59;;;;;;;22.20;11.52;;;;;;;;;;4911861;29;20036;-61
2023/10/09 15:23:25;;;;;;;21.70;11.35;;;;;;;;;;4916052;29;20047;-59
2023/10/09 15:25:51;;;;;;;20.40;12.00;;;;;;;;;;4917712;29;20040;-59
2023/10/09 15:28:19;;;;;;;21.67;11.00;;;;;;;;;;4916464;29;20043;-59
2023/10/09 15:30:47;;;;;;;21.02;11.73;;;;;;;;;;4917302;29;20052;-59
2023/10/09 15:33:16;;;;;;;21.38;12.20;;;;;;;;;;4899773;29;20028;-58
2023/10/09 15:35:49;;;;;;;23.15;12.27;;;;;;;;;;4918240;29;20377;-60
2023/10/09 15:38:15;;;;;;;21.73;12.13;;;;;;;;;;4915849;29;20511;-58
2023/10/09 15:40:43;;;;;;;19.30;12.32;;;;;;;;;;4900860;29;20032;-59
2023/10/09 15:43:12;;;;;;;18.25;12.13;;;;;;;;;;4917053;29;20031;-59
2023/10/09 15:45:44;;;;;;;22.45;12.20;;;;;;;;;;4919744;29;20401;-59
2023/10/09 15:48:11;;;;;;;19.83;11.85;;;;;;;;;;4899467;29;20115;-59
2023/10/09 15:50:38;;;;;;;20.25;12.43;;;;;;;;;;4917437;29;20477;-59
2023/10/09 15:53:03;;;;;;;20.73;12.80;;;;;;;;;;4915687;29;20067;-60
2023/10/09 15:55:28;;;;;;;21.10;12.00;;;;;;;;;;4924433;29;20389;-59
2023/10/09 15:57:54;;;;;;;23.35;13.02;;;;;;;;;;4927667;29;20028;-60
2023/10/09 16:00:21;;;;;;;25.02;12.85;;;;;;;;;;4904736;29;20194;-59
2023/10/09 16:02:48;;;;;;;24.05;13.32;;;;;;;;;;4911363;29;20111;-58
2023/10/09 16:05:16;;;;;;;23.23;13.30;;;;;;;;;;4917015;29;20059;-59
2023/10/09 16:07:42;;;;;;;23.50;12.88;;;;;;;;;;4916046;29;20032;-60
2023/10/09 16:10:09;;;;;;;23.17;13.65;;;;;;;;;;4917835;29;20040;-59
2023/10/09 16:12:37;;;;;;;23.88;13.18;;;;;;;;;;4935099;29;20043;-59
2023/10/09 16:15:04;;;;;;;20.48;12.73;;;;;;;;;;4918427;29;20067;-59
2023/10/09 16:17:33;;;;;;;22.42;12.70;;;;;;;;;;4899255;29;20062;-58
2023/10/09 16:20:00;;;;;;;19.35;12.15;;;;;;;;;;4931201;29;20031;-59
2023/10/09 16:22:29;;;;;;;19.60;13.05;;;;;;;;;;4935674;29;20027;-59
2023/10/09 16:24:59;;;;;;;23.17;12.82;;;;;;;;;;4935899;29;20039;-59
2023/10/09 16:27:27;;;;;;;23.92;13.15;;;;;;;;;;4934720;29;20039;-59
2023/10/09 16:29:53;;;;;;;20.35;12.38;;;;;;;;;;4935859;29;20334;-58
2023/10/09 16:32:21;;;;;;;28.00;13.23;;;;;;;;;;4934914;29;20850;-57
2023/10/09 16:34:49;;;;;;;22.40;13.15;;;;;;;;;;4918380;29;20043;-59
2023/10/09 16:37:15;;;;;;;22.92;13.00;;;;;;;;;;4935284;29;20127;-57
2023/10/09 16:39:41;;;;;;;25.85;14.35;;;;;;;;;;4918758;29;20036;-59
2023/10/09 16:42:09;;;;;;;24.35;14.45;;;;;;;;;;4917662;29;20027;-59
2023/10/09 16:44:36;;;;;;;25.08;14.55;;;;;;;;;;4935578;29;20057;-59
2023/10/09 16:47:03;;;;;;;26.45;15.05;;;;;;;;;;4934948;29;20050;-60
2023/10/09 16:49:30;;;;;;;27.92;14.95;;;;;;;;;;4934894;29;20036;-57
2023/10/09 16:51:56;;;;;;;31.35;16.63;;;;;;;;;;4930283;29;20031;-60
2023/10/09 16:54:22;;;;;;;27.00;15.23;;;;;;;;;;4931431;29;20028;-60
2023/10/09 16:56:51;;;;;;;30.88;15.23;;;;;;;;;;4934966;29;20349;-60
2023/10/09 16:59:16;;;;;;;28.92;14.88;;;;;;;;;;4940460;29;20046;-60
2023/10/09 17:01:44;;;;;;;26.30;15.07;;;;;;;;;;4950244;29;20035;-58
2023/10/09 17:04:16;;;;;;;22.95;15.40;;;;;;;;;;4953754;29;20035;-59
2023/10/09 17:06:44;;;;;;;21.98;14.52;;;;;;;;;;4954237;29;20105;-60
2023/10/09 17:09:13;;;;;;;25.92;14.93;;;;;;;;;;4944996;29;20095;-59
2023/10/09 17:11:40;;;;;;;30.35;14.77;;;;;;;;;;4934801;29;20079;-59
2023/10/09 17:14:06;;;;;;;24.60;15.02;;;;;;;;;;4941691;29;20465;-60
2023/10/09 17:16:33;;;;;;;29.95;15.52;;;;;;;;;;4947730;29;20508;-59
2023/10/09 17:19:00;;;;;;;27.05;15.75;;;;;;;;;;4934722;29;20063;-59
2023/10/09 17:21:26;;;;;;;27.05;15.52;;;;;;;;;;4933900;29;20035;-60
2023/10/09 17:23:58;;;;;;;29.65;15.50;;;;;;;;;;4934637;29;20072;-58
2023/10/09 17:26:26;;;;;;;24.92;14.57;;;;;;;;;;4933701;29;20039;-60
2023/10/09 17:28:54;;;;;;;26.20;14.45;;;;;;;;;;4941150;29;20038;-59
2023/10/09 17:31:26;;;;;;;26.33;14.95;;;;;;;;;;4935707;29;20091;-60
2023/10/09 17:33:53;;;;;;;26.08;14.80;;;;;;;;;;4919360;29;20445;-60
2023/10/09 17:36:20;;;;;;;22.77;13.95;;;;;;;;;;4933788;29;20063;-61
2023/10/09 17:38:49;;;;;;;24.95;14.63;;;;;;;;;;4953942;29;20035;-60
2023/10/09 17:41:15;;;;;;;28.60;13.98;;;;;;;;;;4952146;29;20473;-60
2023/10/09 17:43:41;;;;;;;24.88;15.38;;;;;;;;;;4953494;29;20031;-59